Time;durP1;ratioP1;P1;durP2;ratioP2;P2;SDS_P1;SDS_P2;PMS_P1;PMS_P2;Temp;Humidity;BMP_temperature;BMP_pressure;BME280_temperature;BME280_humidity;BME280_pressure;Samples;Min_cycle;Max_cycle;Signal;HPM_P1;HPM_P2
2023/11/26 00:00:51;;;;;;;9.43;4.00;;;2.10;99.90;;;;;;7373596;19;20041;-61
2023/11/26 00:03:19;;;;;;;7.50;4.40;;;2.10;99.90;;;;;;7375371;19;20677;-61
2023/11/26 00:05:54;;;;;;;5.45;3.78;;;2.00;99.90;;;;;;7374926;19;20022;-61
2023/11/26 00:08:23;;;;;;;8.63;3.13;;;2.10;99.90;;;;;;7374348;19;20393;-61
2023/11/26 00:10:53;;;;;;;10.40;3.97;;;2.10;99.90;;;;;;7373746;19;21687;-61
2023/11/26 00:13:23;;;;;;;7.25;4.05;;;2.10;99.90;;;;;;7377236;19;20487;-60
2023/11/26 00:15:51;;;;;;;7.90;3.80;;;2.10;99.90;;;;;;7375281;19;20018;-61
2023/11/26 00:18:28;;;;;;;8.90;4.07;;;2.10;99.90;;;;;;7374912;19;20018;-61
2023/11/26 00:20:54;;;;;;;10.45;4.10;;;2.00;99.90;;;;;;7371359;19;20482;-60
2023/11/26 00:23:21;;;;;;;5.78;3.25;;;2.00;99.90;;;;;;7377376;19;20036;-61
2023/11/26 00:25:50;;;;;;;5.85;3.53;;;1.90;99.90;;;;;;7371752;19;20398;-61
2023/11/26 00:28:16;;;;;;;8.00;4.10;;;1.90;99.90;;;;;;7375728;19;20019;-57
2023/11/26 00:30:42;;;;;;;9.15;3.70;;;1.80;99.90;;;;;;7371654;19;20015;-63
2023/11/26 00:33:09;;;;;;;7.38;3.97;;;1.80;99.90;;;;;;7374098;19;20058;-61
2023/11/26 00:35:36;;;;;;;9.05;3.67;;;1.70;99.90;;;;;;7372258;19;20021;-61
2023/11/26 00:38:22;;;;;;;5.93;3.60;;;1.70;99.90;;;;;;7373921;19;20018;-61
2023/11/26 00:40:49;;;;;;;6.50;4.20;;;1.70;99.90;;;;;;7372863;19;20010;-65
2023/11/26 00:43:15;;;;;;;7.35;3.75;;;1.60;99.90;;;;;;7376270;19;20010;-62
2023/11/26 00:45:42;;;;;;;7.90;3.90;;;1.60;99.90;;;;;;7372131;19;20014;-61
2023/11/26 00:48:08;;;;;;;7.30;4.07;;;1.50;99.90;;;;;;7371948;19;20010;-61
2023/11/26 00:50:34;;;;;;;7.90;4.13;;;1.50;99.90;;;;;;7373422;19;20058;-61
2023/11/26 00:53:01;;;;;;;9.93;4.65;;;1.40;99.90;;;;;;7370374;19;20014;-59
2023/11/26 00:55:29;;;;;;;9.10;4.97;;;1.50;99.90;;;;;;7373417;19;20098;-61
2023/11/26 00:57:56;;;;;;;6.88;4.72;;;1.50;99.90;;;;;;7372640;19;20042;-61
2023/11/26 01:00:22;;;;;;;6.07;3.97;;;1.50;99.90;;;;;;7374071;19;20019;-60
2023/11/26 01:02:48;;;;;;;7.75;4.35;;;1.50;99.90;;;;;;7371248;19;20022;-61
2023/11/26 01:05:16;;;;;;;5.57;4.05;;;1.50;99.90;;;;;;7370627;19;20035;-60
2023/11/26 01:07:43;;;;;;;6.88;4.68;;;1.60;99.90;;;;;;7369828;19;20022;-61
2023/11/26 01:10:10;;;;;;;8.30;4.18;;;1.60;99.90;;;;;;7372945;19;20018;-58
2023/11/26 01:12:36;;;;;;;7.15;4.38;;;1.70;99.90;;;;;;7369072;19;20026;-58
2023/11/26 01:15:23;;;;;;;8.32;4.80;;;1.70;99.90;;;;;;7374644;19;20051;-61
2023/11/26 01:18:09;;;;;;;11.18;4.82;;;1.80;99.90;;;;;;7371115;19;20025;-61
2023/11/26 01:20:36;;;;;;;9.50;5.30;;;1.90;99.90;;;;;;7371723;19;20018;-61
2023/11/26 01:23:02;;;;;;;8.93;5.53;;;2.00;99.90;;;;;;7373443;19;20010;-61
2023/11/26 01:25:28;;;;;;;6.75;4.75;;;2.00;99.90;;;;;;7373954;19;20025;-61
2023/11/26 01:27:55;;;;;;;8.38;5.05;;;2.00;99.90;;;;;;7371720;19;20032;-61
2023/11/26 01:30:44;;;;;;;8.27;4.38;;;2.10;99.90;;;;;;7374191;19;20049;-61
2023/11/26 01:33:11;;;;;;;8.73;4.70;;;2.10;99.90;;;;;;7368596;19;20014;-61
2023/11/26 01:35:38;;;;;;;8.70;4.57;;;2.10;99.90;;;;;;7376408;19;20877;-61
2023/11/26 01:38:04;;;;;;;7.15;4.43;;;2.20;99.90;;;;;;7371248;19;20026;-60
2023/11/26 01:40:37;;;;;;;9.75;5.40;;;2.20;99.90;;;;;;7376081;19;20021;-61
2023/11/26 01:43:27;;;;;;;7.78;4.68;;;2.20;99.90;;;;;;7379912;19;20019;-61
2023/11/26 01:46:03;;;;;;;10.85;5.25;;;2.20;99.90;;;;;;7379389;19;20018;-61
2023/11/26 01:48:29;;;;;;;7.05;4.32;;;2.30;99.90;;;;;;7373932;19;20018;-61
2023/11/26 01:50:56;;;;;;;7.32;4.20;;;2.20;99.90;;;;;;7380447;19;20015;-61
2023/11/26 01:53:22;;;;;;;11.27;4.95;;;2.30;99.90;;;;;;7380658;19;20034;-60
2023/11/26 01:55:49;;;;;;;8.30;4.97;;;2.30;99.90;;;;;;7372577;19;20323;-61
2023/11/26 01:58:16;;;;;;;6.20;4.38;;;2.30;99.90;;;;;;7379586;19;20074;-61
2023/11/26 02:00:42;;;;;;;8.88;5.13;;;2.30;99.90;;;;;;7375179;19;20035;-61
2023/11/26 02:03:11;;;;;;;10.32;5.22;;;2.30;99.90;;;;;;7376684;19;20494;-60
2023/11/26 02:05:38;;;;;;;8.75;5.15;;;2.40;99.90;;;;;;7369451;19;20010;-61
2023/11/26 02:08:04;;;;;;;6.47;4.75;;;2.40;99.90;;;;;;7381279;19;20584;-61
2023/11/26 02:10:31;;;;;;;7.43;4.93;;;2.40;99.90;;;;;;7377504;19;20381;-61
2023/11/26 02:13:05;;;;;;;6.95;4.75;;;2.40;99.90;;;;;;7378690;19;20487;-61
2023/11/26 02:15:38;;;;;;;9.85;5.45;;;2.40;99.90;;;;;;7374638;19;20035;-61
2023/11/26 02:18:04;;;;;;;7.78;5.03;;;2.40;99.90;;;;;;7380317;19;20019;-61
2023/11/26 02:20:34;;;;;;;10.63;4.90;;;2.40;99.90;;;;;;7377642;19;20014;-60
2023/11/26 02:23:00;;;;;;;12.70;4.72;;;2.50;99.90;;;;;;7380817;19;20849;-60
2023/11/26 02:25:46;;;;;;;8.98;5.20;;;2.50;99.90;;;;;;7375460;19;20534;-61
2023/11/26 02:28:13;;;;;;;9.77;5.85;;;2.50;99.90;;;;;;7380805;19;20759;-61
2023/11/26 02:30:39;;;;;;;8.88;5.60;;;2.50;99.90;;;;;;7373221;19;20018;-60
2023/11/26 02:33:06;;;;;;;10.77;5.00;;;2.50;99.90;;;;;;7378022;19;20015;-61
2023/11/26 02:35:33;;;;;;;9.68;4.90;;;2.60;99.90;;;;;;7378932;19;20025;-61
2023/11/26 02:38:02;;;;;;;13.50;5.28;;;2.60;99.90;;;;;;7379005;19;20056;-58
2023/11/26 02:40:30;;;;;;;9.63;5.55;;;2.70;99.90;;;;;;7382815;19;20022;-59
2023/11/26 02:42:59;;;;;;;12.18;5.10;;;2.80;99.90;;;;;;7380219;19;20372;-58
2023/11/26 02:45:26;;;;;;;10.70;5.45;;;2.80;99.90;;;;;;7377581;19;20014;-58
2023/11/26 02:47:52;;;;;;;10.13;6.07;;;2.80;99.90;;;;;;7381625;19;20018;-58
2023/11/26 02:50:19;;;;;;;10.85;5.60;;;2.90;99.90;;;;;;7382501;19;20086;-58
2023/11/26 02:52:45;;;;;;;10.38;6.00;;;2.80;99.90;;;;;;7374878;19;20347;-58
2023/11/26 02:55:11;;;;;;;11.70;6.38;;;2.80;99.90;;;;;;7379295;19;20051;-58
2023/11/26 02:57:37;;;;;;;11.38;5.68;;;2.80;99.90;;;;;;7376223;19;20106;-58
2023/11/26 03:00:24;;;;;;;12.20;5.38;;;2.70;99.90;;;;;;7379964;19;20018;-58
2023/11/26 03:02:51;;;;;;;11.38;5.75;;;2.60;99.90;;;;;;7373747;19;20010;-58
2023/11/26 03:05:18;;;;;;;12.43;5.60;;;2.60;99.90;;;;;;7379549;19;20078;-58
2023/11/26 03:07:57;;;;;;;9.85;5.57;;;2.50;99.90;;;;;;7377633;19;20771;-58
2023/11/26 03:13:12;;;;;;;8.70;5.60;;;2.50;99.90;;;;;;7379811;19;20641;-58
2023/11/26 03:15:45;;;;;;;11.55;6.13;;;2.40;99.90;;;;;;7378220;19;20090;-58
2023/11/26 03:18:13;;;;;;;12.15;6.03;;;2.40;99.90;;;;;;7376997;19;20014;-58
2023/11/26 03:20:42;;;;;;;11.50;6.70;;;2.50;99.90;;;;;;7376845;19;20029;-58
2023/11/26 03:23:13;;;;;;;11.45;6.20;;;2.50;99.90;;;;;;7374301;19;20022;-58
2023/11/26 03:25:39;;;;;;;11.32;6.60;;;2.60;99.90;;;;;;7370901;19;20830;-58
2023/11/26 03:28:06;;;;;;;14.75;6.97;;;2.50;99.90;;;;;;7377992;19;20471;-57
2023/11/26 03:30:52;;;;;;;12.45;7.15;;;2.60;99.90;;;;;;7376984;19;20022;-57
2023/11/26 03:33:19;;;;;;;13.27;7.57;;;2.60;99.90;;;;;;7375983;19;20016;-59
2023/11/26 03:35:45;;;;;;;12.98;6.63;;;2.60;99.90;;;;;;7374636;19;20011;-57
2023/11/26 03:38:13;;;;;;;11.52;6.57;;;2.60;99.90;;;;;;7378595;19;20051;-58
2023/11/26 03:40:39;;;;;;;14.20;7.13;;;2.60;99.90;;;;;;7378170;19;20478;-58
2023/11/26 03:43:07;;;;;;;14.18;6.82;;;2.50;99.90;;;;;;7375215;19;20019;-58
2023/11/26 03:45:33;;;;;;;16.77;7.82;;;2.60;99.90;;;;;;7373278;19;20074;-58
2023/11/26 03:47:59;;;;;;;9.75;7.10;;;2.60;99.90;;;;;;7376183;19;20022;-58
2023/11/26 03:50:25;;;;;;;12.00;6.97;;;2.50;99.90;;;;;;7379471;19;20026;-58
2023/11/26 03:52:54;;;;;;;12.98;6.90;;;2.50;99.90;;;;;;7377318;19;20631;-58
2023/11/26 03:55:20;;;;;;;14.27;6.93;;;2.50;99.90;;;;;;7378289;19;20020;-59
2023/11/26 03:57:46;;;;;;;9.98;6.88;;;2.40;99.90;;;;;;7378284;19;20010;-58
2023/11/26 04:00:13;;;;;;;11.52;6.32;;;2.40;99.90;;;;;;7381241;19;20017;-58
2023/11/26 04:02:40;;;;;;;14.43;6.55;;;2.40;99.90;;;;;;7377433;19;20022;-59
2023/11/26 04:05:10;;;;;;;12.48;6.45;;;2.40;99.90;;;;;;7372244;19;20889;-59
2023/11/26 04:07:37;;;;;;;13.95;6.78;;;2.30;99.90;;;;;;7376887;19;20052;-58
2023/11/26 04:10:08;;;;;;;17.17;6.90;;;2.30;99.90;;;;;;7376311;19;20474;-59
2023/11/26 04:12:38;;;;;;;10.85;5.78;;;2.40;99.90;;;;;;7375338;19;20107;-58
2023/11/26 04:15:06;;;;;;;9.63;6.53;;;2.40;99.90;;;;;;7377301;19;20077;-59
2023/11/26 04:17:33;;;;;;;8.85;5.68;;;2.40;99.90;;;;;;7372284;19;20896;-59
2023/11/26 04:20:00;;;;;;;13.32;6.80;;;2.50;99.90;;;;;;7374977;19;20123;-59
2023/11/26 04:22:27;;;;;;;12.65;7.13;;;2.50;99.90;;;;;;7372788;19;20023;-58
2023/11/26 04:24:53;;;;;;;11.80;7.10;;;2.50;99.90;;;;;;7374599;19;20866;-59
2023/11/26 04:27:21;;;;;;;10.68;6.53;;;2.50;99.90;;;;;;7375083;19;20482;-58
2023/11/26 04:29:47;;;;;;;14.27;6.15;;;2.60;99.90;;;;;;7375603;19;20028;-58
2023/11/26 04:32:14;;;;;;;9.77;6.38;;;2.60;99.90;;;;;;7375799;19;20834;-59
2023/11/26 04:34:40;;;;;;;9.70;6.05;;;2.60;99.90;;;;;;7372413;19;20018;-58
2023/11/26 04:37:10;;;;;;;10.77;6.07;;;2.70;99.90;;;;;;7372135;19;20018;-59
2023/11/26 04:39:38;;;;;;;8.07;5.00;;;2.70;99.90;;;;;;7373867;19;20034;-59
2023/11/26 04:42:05;;;;;;;12.20;4.65;;;2.80;99.90;;;;;;7373383;19;20019;-59
2023/11/26 04:44:32;;;;;;;16.08;4.47;;;2.80;99.90;;;;;;7373553;19;20015;-58
2023/11/26 04:47:01;;;;;;;10.02;4.15;;;2.90;99.90;;;;;;7372610;19;20018;-59
2023/11/26 04:49:28;;;;;;;14.50;3.58;;;2.80;99.90;;;;;;7373480;19;20103;-58
2023/11/26 04:51:54;;;;;;;7.97;2.95;;;2.90;99.90;;;;;;7374756;19;20019;-59
2023/11/26 04:54:26;;;;;;;11.05;3.20;;;2.90;99.90;;;;;;7370697;19;20015;-58
2023/11/26 04:56:53;;;;;;;;;;;2.90;99.90;;;;;;7373138;19;20044;-58
2023/11/26 04:59:19;;;;;;;5.15;2.30;;;3.00;99.90;;;;;;7374276;19;19923;-58
2023/11/26 05:01:48;;;;;;;12.27;2.92;;;3.00;99.90;;;;;;7373429;19;20671;-58
2023/11/26 05:04:15;;;;;;;11.15;3.08;;;3.00;99.90;;;;;;7369034;19;20030;-59
2023/11/26 05:06:44;;;;;;;8.70;2.70;;;3.10;99.90;;;;;;7375834;19;20018;-59
2023/11/26 05:09:15;;;;;;;2.95;2.15;;;3.10;99.90;;;;;;7372067;19;20022;-58
2023/11/26 05:11:45;;;;;;;12.40;2.60;;;3.10;99.90;;;;;;7373527;19;20378;-58
2023/11/26 05:14:14;;;;;;;9.88;2.72;;;3.10;99.90;;;;;;7372790;19;20014;-58
2023/11/26 05:16:41;;;;;;;4.88;1.90;;;3.10;99.90;;;;;;7372637;19;20018;-58
2023/11/26 05:19:08;;;;;;;12.43;3.05;;;3.10;99.90;;;;;;7374082;19;20613;-58
2023/11/26 05:21:37;;;;;;;8.85;2.25;;;3.10;99.90;;;;;;7372822;19;20389;-58
2023/11/26 05:24:04;;;;;;;9.43;2.92;;;3.10;99.90;;;;;;7374884;19;20779;-58
2023/11/26 05:26:31;;;;;;;7.75;2.22;;;3.10;99.90;;;;;;7372071;19;20455;-58
2023/11/26 05:28:58;;;;;;;4.97;1.42;;;3.10;99.90;;;;;;7372398;19;20017;-58
2023/11/26 05:31:25;;;;;;;7.63;2.00;;;3.00;99.90;;;;;;7370940;19;20082;-59
2023/11/26 05:33:54;;;;;;;11.15;2.00;;;3.00;99.90;;;;;;7371976;19;20916;-58
2023/11/26 05:36:21;;;;;;;5.32;1.73;;;3.00;99.90;;;;;;7373325;19;20019;-58
2023/11/26 05:38:47;;;;;;;6.90;2.20;;;3.00;99.90;;;;;;7370256;19;20019;-59
2023/11/26 05:41:14;;;;;;;8.52;1.85;;;3.00;99.90;;;;;;7372277;19;20052;-59
2023/11/26 05:43:40;;;;;;;11.60;2.33;;;3.10;99.90;;;;;;7371967;19;20475;-59
2023/11/26 05:46:07;;;;;;;3.45;1.70;;;3.10;99.90;;;;;;7373037;19;20600;-60
2023/11/26 05:48:34;;;;;;;5.28;1.52;;;3.20;99.90;;;;;;7373371;19;20122;-59
2023/11/26 05:51:00;;;;;;;7.47;1.52;;;3.20;99.90;;;;;;7370683;19;20021;-58
2023/11/26 05:53:26;;;;;;;6.13;1.63;;;3.30;99.90;;;;;;7370255;19;20537;-60
2023/11/26 05:55:53;;;;;;;7.60;1.80;;;3.40;99.90;;;;;;7368776;19;20027;-59
2023/11/26 05:58:20;;;;;;;6.20;1.40;;;3.40;99.90;;;;;;7374374;19;20078;-59
2023/11/26 06:00:49;;;;;;;6.03;1.50;;;3.60;99.90;;;;;;7372136;19;20095;-59
2023/11/26 06:03:36;;;;;;;8.07;1.45;;;3.60;99.90;;;;;;7371791;19;20014;-59
2023/11/26 06:06:03;;;;;;;7.72;1.60;;;3.60;99.90;;;;;;7371217;19;20021;-59
2023/11/26 06:08:30;;;;;;;7.68;1.60;;;3.70;99.90;;;;;;7374136;19;20050;-59
2023/11/26 06:10:56;;;;;;;6.45;1.83;;;3.70;99.90;;;;;;7371391;19;20025;-59
2023/11/26 06:13:23;;;;;;;7.97;1.38;;;3.80;99.90;;;;;;7374542;19;20043;-59
2023/11/26 06:15:49;;;;;;;7.60;1.23;;;3.80;99.90;;;;;;7369595;19;20014;-59
2023/11/26 06:18:16;;;;;;;8.82;1.75;;;3.70;99.90;;;;;;7372494;19;20022;-59
2023/11/26 06:20:42;;;;;;;7.75;1.02;;;3.80;99.90;;;;;;7370620;19;20017;-59
2023/11/26 06:23:09;;;;;;;5.18;1.20;;;3.80;99.90;;;;;;7371532;19;20366;-59
2023/11/26 06:25:35;;;;;;;8.05;1.60;;;3.80;99.90;;;;;;7364912;19;20021;-59
2023/11/26 06:28:01;;;;;;;11.05;1.70;;;3.80;99.90;;;;;;7374779;19;20573;-59
2023/11/26 06:30:27;;;;;;;5.70;1.48;;;3.80;99.90;;;;;;7375723;19;20482;-59
2023/11/26 06:32:54;;;;;;;6.93;1.50;;;3.80;99.90;;;;;;7376487;19;20018;-59
2023/11/26 06:35:21;;;;;;;10.65;1.63;;;3.80;99.90;;;;;;7375361;19;20014;-59
2023/11/26 06:37:47;;;;;;;6.57;1.52;;;3.80;99.90;;;;;;7376811;19;20499;-59
2023/11/26 06:40:15;;;;;;;7.38;1.35;;;3.80;99.90;;;;;;7376234;19;20026;-60
2023/11/26 06:42:42;;;;;;;7.07;1.73;;;3.80;99.90;;;;;;7375223;19;20030;-62
2023/11/26 06:45:09;;;;;;;7.72;1.40;;;3.70;99.90;;;;;;7369814;19;20110;-60
2023/11/26 06:47:36;;;;;;;8.75;1.17;;;3.80;99.90;;;;;;7373267;19;20061;-59
2023/11/26 06:50:03;;;;;;;6.03;1.42;;;3.80;99.90;;;;;;7372460;19;20798;-59
2023/11/26 06:52:33;;;;;;;7.28;1.40;;;3.80;99.90;;;;;;7375040;19;20390;-59
2023/11/26 06:55:00;;;;;;;10.65;1.60;;;3.90;99.90;;;;;;7375136;19;20018;-59
2023/11/26 06:57:26;;;;;;;3.72;1.00;;;3.90;99.90;;;;;;7379756;19;21050;-59
2023/11/26 06:59:52;;;;;;;7.00;1.40;;;3.90;99.90;;;;;;7373620;19;20018;-59
2023/11/26 07:02:19;;;;;;;8.43;1.85;;;3.90;99.90;;;;;;7375445;19;20360;-60
2023/11/26 07:04:45;;;;;;;4.43;1.38;;;3.90;99.90;;;;;;7373202;19;20024;-59
2023/11/26 07:07:12;;;;;;;8.20;1.73;;;3.90;99.90;;;;;;7373289;19;20035;-59
2023/11/26 07:09:58;;;;;;;8.35;1.38;;;3.90;99.90;;;;;;7370842;19;20050;-58
2023/11/26 07:12:26;;;;;;;8.45;1.83;;;3.90;99.90;;;;;;7375772;19;20022;-59
2023/11/26 07:14:52;;;;;;;11.27;2.50;;;3.90;99.90;;;;;;7371675;19;20428;-59
2023/11/26 07:17:18;;;;;;;6.90;1.52;;;4.00;99.90;;;;;;7374260;19;20043;-59
2023/11/26 07:19:44;;;;;;;7.47;1.25;;;3.90;99.90;;;;;;7373620;19;20023;-59
2023/11/26 07:22:13;;;;;;;8.65;1.90;;;4.00;99.90;;;;;;7376166;19;20019;-59
2023/11/26 07:24:42;;;;;;;6.30;1.42;;;4.00;99.90;;;;;;7372777;19;20014;-59
2023/11/26 07:27:28;;;;;;;9.65;2.95;;;4.10;99.90;;;;;;7371280;19;20780;-59
2023/11/26 07:29:55;;;;;;;11.82;2.75;;;4.10;99.90;;;;;;7376893;19;20022;-59
2023/11/26 07:32:21;;;;;;;10.15;2.80;;;4.10;99.90;;;;;;7375454;19;20014;-59
2023/11/26 07:34:47;;;;;;;9.25;1.77;;;4.20;99.90;;;;;;7374662;19;20028;-59
2023/11/26 07:37:13;;;;;;;10.23;2.22;;;4.20;99.90;;;;;;7374451;19;20018;-62
2023/11/26 07:39:40;;;;;;;9.30;2.33;;;4.20;99.90;;;;;;7371841;19;20027;-63
2023/11/26 07:42:06;;;;;;;8.50;2.90;;;4.30;99.90;;;;;;7375130;19;20058;-62
2023/11/26 07:44:33;;;;;;;12.43;3.45;;;4.30;99.90;;;;;;7373797;19;20416;-62
2023/11/26 07:47:02;;;;;;;8.60;2.33;;;4.40;99.90;;;;;;7374523;19;20074;-62
2023/11/26 07:49:31;;;;;;;9.88;2.05;;;4.40;99.90;;;;;;7374116;19;20074;-59
2023/11/26 07:51:57;;;;;;;11.07;2.30;;;4.50;99.90;;;;;;7374767;19;20025;-60
2023/11/26 07:54:24;;;;;;;5.30;1.85;;;4.50;99.90;;;;;;7376183;19;20029;-59
2023/11/26 07:56:50;;;;;;;9.73;1.88;;;4.50;99.90;;;;;;7374742;19;20038;-60
2023/11/26 07:59:16;;;;;;;8.52;2.00;;;4.60;99.90;;;;;;7372945;19;20021;-60
2023/11/26 08:01:42;;;;;;;8.85;2.17;;;4.60;99.90;;;;;;7374371;19;20015;-60
2023/11/26 08:04:08;;;;;;;10.88;2.28;;;4.60;99.90;;;;;;7373429;19;20661;-60
2023/11/26 08:06:35;;;;;;;12.45;2.30;;;4.60;99.90;;;;;;7370712;19;20086;-59
2023/11/26 08:09:04;;;;;;;12.35;2.25;;;4.60;99.90;;;;;;7372484;19;20865;-59
2023/11/26 08:11:34;;;;;;;4.85;1.63;;;4.70;99.90;;;;;;7373232;19;20039;-59
2023/11/26 08:14:03;;;;;;;8.35;1.80;;;4.70;99.90;;;;;;7372654;19;20019;-59
2023/11/26 08:16:30;;;;;;;9.55;2.33;;;4.70;99.90;;;;;;7371332;19;20037;-58
2023/11/26 08:19:01;;;;;;;11.48;1.83;;;4.70;99.90;;;;;;7374425;19;20040;-58
2023/11/26 08:21:31;;;;;;;7.53;1.80;;;4.70;99.90;;;;;;7374647;19;20325;-58
2023/11/26 08:24:01;;;;;;;12.52;2.85;;;4.70;99.90;;;;;;7369896;19;20018;-60
2023/11/26 08:26:32;;;;;;;7.43;1.70;;;4.70;99.90;;;;;;7372002;19;20014;-60
2023/11/26 08:28:58;;;;;;;8.93;2.00;;;4.70;99.90;;;;;;7374467;19;20026;-61
2023/11/26 08:31:27;;;;;;;9.25;2.20;;;4.70;99.90;;;;;;7374814;19;20051;-61
2023/11/26 08:33:55;;;;;;;12.90;2.15;;;4.80;99.90;;;;;;7370479;19;20022;-59
2023/11/26 08:36:21;;;;;;;7.18;2.05;;;4.80;99.90;;;;;;7376200;19;20370;-60
2023/11/26 08:38:48;;;;;;;9.95;2.03;;;4.80;99.90;;;;;;7371408;19;20481;-61
2023/11/26 08:41:20;;;;;;;5.70;1.60;;;4.90;99.90;;;;;;7374066;19;20030;-60
2023/11/26 08:43:50;;;;;;;8.25;2.47;;;4.90;99.90;;;;;;7374122;19;20022;-60
2023/11/26 08:46:19;;;;;;;10.20;1.77;;;4.90;99.90;;;;;;7373726;19;20022;-61
2023/11/26 08:48:50;;;;;;;7.22;2.50;;;4.80;99.90;;;;;;7371935;19;20014;-57
2023/11/26 08:51:17;;;;;;;12.52;2.78;;;4.80;99.90;;;;;;7371370;19;20500;-57
2023/11/26 08:53:43;;;;;;;8.65;1.85;;;4.80;99.90;;;;;;7370773;19;20018;-57
2023/11/26 08:56:12;;;;;;;6.45;1.48;;;4.90;99.90;;;;;;7373741;19;20022;-58
2023/11/26 08:58:39;;;;;;;8.23;1.77;;;5.10;99.90;;;;;;7372160;19;20038;-58
2023/11/26 09:01:05;;;;;;;4.80;1.40;;;5.20;99.90;;;;;;7373125;19;20379;-58
2023/11/26 09:03:36;;;;;;;6.97;1.50;;;5.30;99.90;;;;;;7372352;19;20078;-57
2023/11/26 09:06:05;;;;;;;7.72;1.75;;;5.30;99.90;;;;;;7368925;19;20033;-57
2023/11/26 09:08:31;;;;;;;6.82;1.95;;;5.40;99.90;;;;;;7375181;19;20416;-60
2023/11/26 09:10:58;;;;;;;7.65;1.73;;;5.50;99.90;;;;;;7372016;19;20639;-60
2023/11/26 09:13:28;;;;;;;8.55;2.45;;;5.90;99.90;;;;;;7369817;19;20018;-57
2023/11/26 09:15:56;;;;;;;8.02;2.38;;;6.00;99.90;;;;;;7370453;19;20627;-57
2023/11/26 09:18:22;;;;;;;9.40;1.35;;;6.10;99.90;;;;;;7369875;19;20486;-57
2023/11/26 09:20:48;;;;;;;7.32;2.10;;;6.10;99.90;;;;;;7371220;19;20486;-58
2023/11/26 09:23:15;;;;;;;10.30;1.95;;;6.10;99.90;;;;;;7367443;19;20653;-57
2023/11/26 09:25:41;;;;;;;11.13;1.65;;;6.30;99.90;;;;;;7371145;19;20038;-59
2023/11/26 09:28:09;;;;;;;10.43;2.00;;;6.40;99.90;;;;;;7362903;19;20040;-57
2023/11/26 09:30:35;;;;;;;9.23;1.70;;;6.50;99.90;;;;;;7372007;19;20015;-58
2023/11/26 09:33:02;;;;;;;6.88;1.52;;;6.60;99.90;;;;;;7367661;19;20022;-58
2023/11/26 09:35:28;;;;;;;7.60;1.63;;;6.70;99.90;;;;;;7370671;19;20019;-58
2023/11/26 09:37:55;;;;;;;11.38;2.00;;;6.70;99.90;;;;;;7371671;19;20018;-58
2023/11/26 09:40:21;;;;;;;9.00;1.73;;;6.70;99.90;;;;;;7372293;19;20022;-57
2023/11/26 09:42:54;;;;;;;11.73;2.05;;;6.70;99.90;;;;;;7370026;19;20042;-58
2023/11/26 09:45:20;;;;;;;7.97;1.48;;;6.70;99.90;;;;;;7368887;19;20429;-62
2023/11/26 09:47:49;;;;;;;5.88;1.75;;;6.70;99.90;;;;;;7368599;19;20496;-61
2023/11/26 09:50:15;;;;;;;7.30;1.85;;;6.80;99.90;;;;;;7371612;19;20078;-61
2023/11/26 09:52:42;;;;;;;7.63;2.03;;;6.80;99.90;;;;;;7371081;19;20018;-61
2023/11/26 09:55:09;;;;;;;8.50;1.67;;;6.70;99.90;;;;;;7369492;19;20018;-61
2023/11/26 09:57:38;;;;;;;8.70;1.60;;;6.70;99.90;;;;;;7372790;19;20801;-61
2023/11/26 10:00:06;;;;;;;8.90;1.83;;;6.60;99.90;;;;;;7375581;19;20024;-61
2023/11/26 10:02:32;;;;;;;8.88;2.30;;;6.70;99.90;;;;;;7375254;19;20138;-61
2023/11/26 10:05:00;;;;;;;9.63;2.70;;;6.70;99.90;;;;;;7380415;19;20022;-62
2023/11/26 10:07:37;;;;;;;8.30;2.42;;;6.70;99.90;;;;;;7376547;19;20022;-61
2023/11/26 10:10:14;;;;;;;10.07;2.17;;;6.70;99.90;;;;;;7381390;19;20109;-62
2023/11/26 10:12:54;;;;;;;8.18;2.00;;;6.70;99.90;;;;;;7377998;19;20887;-62
2023/11/26 10:15:23;;;;;;;12.50;2.13;;;6.60;99.90;;;;;;7375446;19;20058;-61
2023/11/26 10:18:07;;;;;;;8.73;2.28;;;6.60;99.90;;;;;;7376078;19;20628;-62
2023/11/26 10:20:50;;;;;;;7.93;1.90;;;6.70;99.90;;;;;;7378791;19;20490;-61
2023/11/26 10:23:24;;;;;;;9.25;2.53;;;6.70;99.90;;;;;;7379731;19;20033;-61
2023/11/26 10:25:50;;;;;;;7.28;2.60;;;6.70;99.90;;;;;;7374471;19;20143;-62
2023/11/26 10:28:17;;;;;;;9.85;2.92;;;6.70;99.90;;;;;;7379834;19;20498;-62
2023/11/26 10:30:44;;;;;;;8.27;2.65;;;6.70;99.90;;;;;;7378489;19;20018;-61
2023/11/26 10:33:12;;;;;;;11.82;2.50;;;6.60;99.90;;;;;;7380110;19;20018;-61
2023/11/26 10:35:53;;;;;;;11.98;2.90;;;6.60;99.90;;;;;;7379767;19;20377;-63
2023/11/26 10:38:27;;;;;;;12.00;2.30;;;6.50;99.90;;;;;;7380595;19;20027;-62
2023/11/26 10:40:56;;;;;;;12.15;2.10;;;6.50;99.90;;;;;;7378324;19;20412;-62
2023/11/26 10:43:25;;;;;;;10.00;2.60;;;6.50;99.90;;;;;;7378910;19;20125;-61
2023/11/26 10:45:52;;;;;;;12.20;2.15;;;6.50;99.90;;;;;;7375483;19;20026;-60
2023/11/26 10:48:20;;;;;;;13.55;2.78;;;6.50;99.90;;;;;;7376972;19;20806;-61
2023/11/26 10:51:10;;;;;;;9.02;2.20;;;6.50;99.90;;;;;;7379494;19;20061;-61
2023/11/26 10:53:46;;;;;;;9.65;2.05;;;6.50;99.90;;;;;;7375349;19;20026;-62
2023/11/26 10:56:17;;;;;;;7.75;2.45;;;6.60;99.90;;;;;;7376283;19;20061;-62
2023/11/26 10:58:49;;;;;;;10.43;2.25;;;6.60;99.90;;;;;;7375596;19;20029;-61
2023/11/26 11:01:17;;;;;;;;;;;6.60;99.90;;;;;;7375752;19;20018;-61
2023/11/26 11:03:43;;;;;;;10.90;2.80;;;6.60;99.90;;;;;;7374020;19;20315;-61
2023/11/26 11:06:12;;;;;;;11.18;2.55;;;6.60;99.90;;;;;;7371763;19;20039;-61
2023/11/26 11:08:40;;;;;;;11.63;2.03;;;6.70;99.90;;;;;;7374105;19;20578;-61
2023/11/26 11:11:15;;;;;;;9.77;2.13;;;6.70;99.90;;;;;;7373725;19;20022;-62
2023/11/26 11:13:42;;;;;;;11.30;2.20;;;6.70;99.90;;;;;;7375011;19;20019;-61
2023/11/26 11:16:10;;;;;;;10.68;2.13;;;6.70;99.90;;;;;;7372790;19;20037;-61
2023/11/26 11:18:41;;;;;;;6.20;2.08;;;6.80;99.90;;;;;;7375559;19;20046;-61
2023/11/26 11:21:13;;;;;;;10.95;2.60;;;6.80;99.90;;;;;;7377120;19;20018;-61
2023/11/26 11:23:42;;;;;;;9.85;2.30;;;6.80;99.90;;;;;;7376677;19;20604;-61
2023/11/26 11:26:19;;;;;;;10.57;2.17;;;6.80;99.90;;;;;;7373916;19;20382;-61
2023/11/26 11:28:50;;;;;;;9.90;2.20;;;6.90;99.90;;;;;;7371913;19;20019;-61
2023/11/26 11:31:18;;;;;;;11.20;2.38;;;6.90;99.90;;;;;;7370687;19;20015;-61
2023/11/26 11:34:00;;;;;;;9.40;2.83;;;6.90;99.90;;;;;;7371562;19;20084;-59
2023/11/26 11:36:42;;;;;;;9.25;2.00;;;6.90;99.90;;;;;;7373936;19;20030;-61
2023/11/26 11:39:15;;;;;;;13.13;2.60;;;7.00;99.90;;;;;;7371421;19;20023;-61
2023/11/26 11:41:57;;;;;;;6.68;1.60;;;7.10;99.90;;;;;;7375261;19;20022;-61
2023/11/26 11:44:28;;;;;;;9.68;1.80;;;7.10;99.90;;;;;;7375854;19;20014;-60
2023/11/26 11:47:02;;;;;;;7.22;1.60;;;7.10;99.90;;;;;;7374212;19;20040;-60
2023/11/26 11:49:46;;;;;;;5.72;1.60;;;7.20;99.90;;;;;;7374292;19;20094;-61
2023/11/26 11:52:13;;;;;;;7.95;1.60;;;7.30;99.90;;;;;;7377076;19;20022;-61
2023/11/26 11:54:57;;;;;;;9.55;1.92;;;7.30;99.90;;;;;;7377719;19;20052;-61
2023/11/26 11:57:28;;;;;;;7.32;1.70;;;7.30;99.90;;;;;;7375649;19;20018;-60
2023/11/26 11:59:55;;;;;;;8.77;1.92;;;7.30;99.90;;;;;;7374391;19;20578;-60
2023/11/26 12:02:33;;;;;;;7.50;1.88;;;7.40;99.90;;;;;;7373250;19;20047;-61
2023/11/26 12:04:59;;;;;;;10.45;1.90;;;7.30;99.90;;;;;;7374059;19;20082;-61
2023/11/26 12:07:32;;;;;;;11.38;1.58;;;7.40;99.90;;;;;;7372062;19;20022;-61
2023/11/26 12:10:03;;;;;;;8.43;1.50;;;7.40;99.90;;;;;;7367698;19;20022;-61
2023/11/26 12:12:29;;;;;;;8.68;1.70;;;7.40;99.90;;;;;;7372316;19;20018;-61
2023/11/26 12:14:55;;;;;;;8.85;1.80;;;7.40;99.90;;;;;;7368307;19;20445;-60
2023/11/26 12:17:22;;;;;;;7.55;1.92;;;7.40;99.90;;;;;;7371179;19;20811;-61
2023/11/26 12:19:49;;;;;;;7.22;1.52;;;7.40;99.90;;;;;;7372434;19;20018;-62
2023/11/26 12:22:16;;;;;;;9.45;2.03;;;7.40;99.90;;;;;;7373268;19;20018;-61
2023/11/26 12:24:43;;;;;;;6.57;1.42;;;7.40;99.90;;;;;;7372873;19;20500;-61
2023/11/26 12:27:24;;;;;;;7.00;1.30;;;7.40;99.90;;;;;;7361868;19;20888;-62
2023/11/26 12:29:51;;;;;;;6.00;1.73;;;7.40;99.90;;;;;;7370689;19;20018;-61
2023/11/26 12:32:25;;;;;;;7.53;1.80;;;7.50;99.90;;;;;;7372628;19;20030;-62
2023/11/26 12:34:54;;;;;;;12.43;1.95;;;7.50;99.90;;;;;;7374744;19;20429;-64
2023/11/26 12:37:21;;;;;;;5.57;1.33;;;7.50;99.90;;;;;;7373121;19;20030;-59
2023/11/26 12:39:48;;;;;;;6.35;1.27;;;7.50;99.90;;;;;;7373737;19;20013;-58
2023/11/26 12:42:15;;;;;;;8.52;1.83;;;7.50;99.90;;;;;;7375027;19;20049;-59
2023/11/26 12:44:41;;;;;;;13.23;2.55;;;7.50;99.90;;;;;;7373158;19;20784;-57
2023/11/26 12:47:09;;;;;;;7.35;1.63;;;7.50;99.90;;;;;;7372801;19;20025;-57
2023/11/26 12:49:37;;;;;;;10.25;2.00;;;7.40;99.90;;;;;;7363438;19;20105;-57
2023/11/26 12:52:07;;;;;;;7.03;1.77;;;7.50;99.90;;;;;;7371317;19;20053;-58
2023/11/26 12:54:34;;;;;;;9.32;1.27;;;7.50;99.90;;;;;;7372339;19;20078;-57
2023/11/26 12:57:00;;;;;;;9.85;1.42;;;7.50;99.90;;;;;;7373990;19;20018;-57
2023/11/26 12:59:27;;;;;;;7.55;1.80;;;7.50;99.90;;;;;;7367543;19;20074;-58
2023/11/26 13:01:53;;;;;;;12.63;1.75;;;7.50;99.90;;;;;;7374736;19;20018;-58
2023/11/26 13:04:29;;;;;;;8.20;1.40;;;7.50;99.90;;;;;;7372735;19;21809;-57
2023/11/26 13:06:57;;;;;;;7.53;1.50;;;7.50;99.90;;;;;;7370618;19;20485;-58